createdAt,value
2022-12-17T00:03:37.402Z,99.90
2022-12-17T00:07:52.975Z,99.90
2022-12-17T00:12:06.943Z,99.90
2022-12-17T00:16:20.472Z,99.90
2022-12-17T00:20:33.391Z,99.90
2022-12-17T00:24:48.563Z,99.90
2022-12-17T00:29:01.335Z,99.90
2022-12-17T00:33:14.968Z,99.90
2022-12-17T00:37:29.115Z,99.90
2022-12-17T00:41:44.437Z,99.90
2022-12-17T00:45:57.058Z,99.90
2022-12-17T00:50:11.366Z,99.90
2022-12-17T00:54:24.169Z,99.90
2022-12-17T00:58:39.819Z,99.90
2022-12-17T01:02:52.522Z,99.90
2022-12-17T01:07:05.345Z,99.90
2022-12-17T01:11:21.143Z,99.90
2022-12-17T01:15:36.682Z,99.90
2022-12-17T01:19:49.604Z,99.90
2022-12-17T01:24:02.199Z,99.90
2022-12-17T01:28:15.044Z,99.90
2022-12-17T01:32:30.302Z,99.90
2022-12-17T01:36:42.919Z,99.90
2022-12-17T01:40:55.524Z,99.90
2022-12-17T01:45:11.152Z,99.90
2022-12-17T01:49:28.179Z,99.90
2022-12-17T01:53:46.273Z,99.90
2022-12-17T01:57:58.915Z,99.90
2022-12-17T02:02:21.029Z,99.90
2022-12-17T02:06:42.530Z,99.90
2022-12-17T02:11:03.093Z,99.90
2022-12-17T02:15:25.336Z,99.90
2022-12-17T02:19:55.153Z,99.90
2022-12-17T02:24:27.221Z,99.90
2022-12-17T02:28:43.450Z,99.90
2022-12-17T02:33:01.842Z,99.90
2022-12-17T02:37:15.101Z,99.90
2022-12-17T02:41:32.558Z,99.90
2022-12-17T02:45:49.639Z,99.90
2022-12-17T02:50:03.234Z,99.90
2022-12-17T02:54:21.237Z,99.90
2022-12-17T02:58:34.010Z,99.90
2022-12-17T03:02:49.692Z,99.90
2022-12-17T03:07:02.377Z,99.90
2022-12-17T03:11:15.288Z,99.90
2022-12-17T03:15:27.970Z,99.90
2022-12-17T03:19:42.938Z,99.90
2022-12-17T03:23:55.818Z,99.90
2022-12-17T03:28:14.132Z,99.90
2022-12-17T03:32:26.872Z,99.90
2022-12-17T03:36:42.345Z,99.90
2022-12-17T03:40:54.885Z,99.90
2022-12-17T03:45:07.471Z,99.90
2022-12-17T03:49:20.332Z,99.90
2022-12-17T03:53:35.928Z,99.90
2022-12-17T03:57:48.740Z,99.90
2022-12-17T04:02:01.434Z,99.90
2022-12-17T04:06:14.455Z,99.90
2022-12-17T04:10:29.731Z,99.90
2022-12-17T04:14:42.432Z,99.90
2022-12-17T04:18:55.077Z,99.90
2022-12-17T04:23:07.644Z,99.90
2022-12-17T04:27:22.905Z,99.90
2022-12-17T04:31:35.697Z,99.90
2022-12-17T04:35:48.366Z,99.90
2022-12-17T04:40:00.996Z,99.90
2022-12-17T04:44:16.163Z,99.90
2022-12-17T04:48:28.948Z,99.90
2022-12-17T04:52:41.542Z,99.90
2022-12-17T04:56:54.096Z,99.90
2022-12-17T05:01:10.953Z,99.90
2022-12-17T05:05:24.995Z,99.90
2022-12-17T05:09:37.576Z,99.90
2022-12-17T05:13:50.168Z,99.90
2022-12-17T05:18:20.948Z,99.90
2022-12-17T05:22:33.646Z,99.90
2022-12-17T05:26:46.170Z,99.90
2022-12-17T05:30:58.983Z,99.90
2022-12-17T05:35:14.150Z,99.90
2022-12-17T05:39:27.097Z,99.90
2022-12-17T05:43:40.015Z,99.90
2022-12-17T05:47:52.703Z,99.90
2022-12-17T05:52:07.926Z,99.90
2022-12-17T05:56:21.060Z,99.90
2022-12-17T06:00:33.962Z,99.90
2022-12-17T06:04:46.802Z,99.90
2022-12-17T06:09:01.907Z,99.90
2022-12-17T06:13:14.480Z,99.90
2022-12-17T06:17:27.184Z,99.90
2022-12-17T06:21:40.368Z,99.90
2022-12-17T06:25:55.478Z,99.90
2022-12-17T06:30:08.056Z,99.90
2022-12-17T06:34:20.650Z,99.90
2022-12-17T06:38:33.423Z,99.90
2022-12-17T06:42:48.755Z,99.90
2022-12-17T06:47:01.480Z,99.90
2022-12-17T06:51:14.172Z,99.90
2022-12-17T06:55:26.890Z,99.90
2022-12-17T06:59:42.057Z,99.90
2022-12-17T07:03:54.683Z,99.90
2022-12-17T07:08:13.097Z,99.90
2022-12-17T07:12:25.790Z,99.90
2022-12-17T07:16:40.983Z,99.90
2022-12-17T07:20:53.655Z,99.90
2022-12-17T07:25:06.264Z,99.90
2022-12-17T07:29:19.156Z,99.90
2022-12-17T07:33:34.530Z,99.90
2022-12-17T07:37:47.322Z,99.90
2022-12-17T07:41:59.903Z,99.90
2022-12-17T07:46:12.839Z,99.90
2022-12-17T07:50:28.094Z,99.90
2022-12-17T07:54:40.724Z,99.90
2022-12-17T07:58:56.112Z,99.90
2022-12-17T08:03:13.536Z,99.90
2022-12-17T08:07:28.772Z,99.90
2022-12-17T08:11:41.641Z,99.90
2022-12-17T08:15:55.264Z,99.90
2022-12-17T08:20:08.166Z,99.90
2022-12-17T08:24:23.596Z,99.90
2022-12-17T08:28:51.676Z,99.90
2022-12-17T08:33:04.636Z,99.90
2022-12-17T08:37:17.189Z,99.90
2022-12-17T08:41:32.403Z,99.90
2022-12-17T08:45:45.149Z,99.90
2022-12-17T08:49:57.771Z,99.90
2022-12-17T08:54:10.399Z,99.90
2022-12-17T08:58:26.268Z,99.90
2022-12-17T09:02:39.665Z,99.90
2022-12-17T09:06:52.310Z,99.90
2022-12-17T09:11:05.302Z,99.90
2022-12-17T09:15:22.118Z,99.90
2022-12-17T09:19:34.825Z,99.90
2022-12-17T09:23:47.356Z,99.90
2022-12-17T09:27:59.960Z,99.90
2022-12-17T09:32:15.501Z,99.90
2022-12-17T09:36:28.138Z,99.90
2022-12-17T09:40:41.015Z,99.90
2022-12-17T09:45:03.307Z,99.90
2022-12-17T09:49:31.094Z,99.90
2022-12-17T09:53:52.054Z,99.90
2022-12-17T09:58:17.834Z,99.90
2022-12-17T10:02:36.044Z,99.90
2022-12-17T10:06:52.535Z,99.90
2022-12-17T10:11:05.201Z,99.90
2022-12-17T10:15:18.792Z,99.90
2022-12-17T10:19:43.909Z,99.90
2022-12-17T10:23:59.749Z,99.90
2022-12-17T10:28:18.209Z,99.90
2022-12-17T10:32:38.972Z,99.90
2022-12-17T10:36:51.732Z,99.90
2022-12-17T10:41:06.984Z,99.90
2022-12-17T10:45:36.979Z,99.90
2022-12-17T10:49:58.075Z,99.90
2022-12-17T10:54:34.186Z,99.90
2022-12-17T10:58:50.960Z,99.90
2022-12-17T11:03:04.326Z,99.90
2022-12-17T11:07:17.010Z,99.90
2022-12-17T11:11:32.034Z,99.90
2022-12-17T11:15:53.573Z,99.90
2022-12-17T11:20:12.263Z,99.90
2022-12-17T11:24:35.407Z,99.90
2022-12-17T11:28:51.580Z,99.90
2022-12-17T11:33:21.173Z,99.90
2022-12-17T11:37:37.196Z,99.90
2022-12-17T11:42:09.528Z,99.90
2022-12-17T11:46:38.503Z,99.90
2022-12-17T11:51:03.040Z,99.90
2022-12-17T11:55:30.810Z,99.90
2022-12-17T11:59:54.034Z,99.90
2022-12-17T12:04:25.740Z,99.90
2022-12-17T12:08:54.819Z,99.90
2022-12-17T12:13:22.777Z,99.90
2022-12-17T12:17:57.208Z,99.90
2022-12-17T12:22:21.299Z,99.90
2022-12-17T12:26:46.135Z,99.90
2022-12-17T12:31:14.183Z,99.90
2022-12-17T12:35:35.817Z,99.70
2022-12-17T12:39:55.616Z,99.00
2022-12-17T12:44:17.651Z,99.40
2022-12-17T12:48:49.428Z,97.70
2022-12-17T12:53:02.750Z,96.50
2022-12-17T12:57:15.384Z,95.40
2022-12-17T13:01:31.555Z,95.20
2022-12-17T13:05:39.660Z,95.20
2022-12-17T13:09:52.799Z,94.30
2022-12-17T13:13:58.540Z,94.90
2022-12-17T13:18:17.910Z,93.60
2022-12-17T13:22:36.413Z,93.30
2022-12-17T13:26:47.805Z,93.40
2022-12-17T13:30:48.957Z,94.30
2022-12-17T13:35:10.641Z,94.00
2022-12-17T13:39:30.263Z,94.70
2022-12-17T13:43:36.417Z,95.00
2022-12-17T13:47:38.654Z,95.50
2022-12-17T13:51:41.541Z,95.60
2022-12-17T13:55:42.924Z,95.70
2022-12-17T13:59:43.400Z,96.20
2022-12-17T14:04:08.898Z,95.90
2022-12-17T14:08:19.516Z,96.30
2022-12-17T14:12:26.133Z,97.40
2022-12-17T14:16:26.631Z,97.80
2022-12-17T14:20:31.921Z,98.50
2022-12-17T14:24:35.563Z,99.70
2022-12-17T14:28:38.909Z,99.90
2022-12-17T14:32:40.144Z,99.90
2022-12-17T14:36:43.863Z,99.90
2022-12-17T14:40:46.686Z,99.90
2022-12-17T14:44:55.486Z,99.90
2022-12-17T14:49:06.024Z,99.90
2022-12-17T14:53:27.500Z,99.90
2022-12-17T14:57:30.234Z,99.90
2022-12-17T15:01:30.517Z,99.90
2022-12-17T15:05:30.704Z,99.90
2022-12-17T15:09:30.925Z,99.90
2022-12-17T15:13:33.745Z,99.90
2022-12-17T15:17:33.842Z,99.90
2022-12-17T15:21:34.650Z,99.90
2022-12-17T15:25:40.119Z,99.90
2022-12-17T15:29:47.271Z,99.90
2022-12-17T15:33:47.331Z,99.90
2022-12-17T15:37:47.454Z,99.90
2022-12-17T15:42:00.029Z,99.90
2022-12-17T15:46:04.371Z,99.90
2022-12-17T15:50:04.839Z,99.90
2022-12-17T15:54:04.934Z,99.90
2022-12-17T15:58:05.128Z,99.90
2022-12-17T16:02:08.061Z,99.90
2022-12-17T16:06:09.151Z,99.90
2022-12-17T16:10:10.795Z,99.90
2022-12-17T16:14:10.934Z,99.90
2022-12-17T16:18:13.637Z,99.90
2022-12-17T16:22:13.730Z,99.90
2022-12-17T16:26:14.822Z,99.90
2022-12-17T16:30:17.046Z,99.90
2022-12-17T16:34:20.139Z,99.90
2022-12-17T16:38:20.788Z,99.90
2022-12-17T16:42:20.884Z,99.90
2022-12-17T16:46:31.081Z,99.90
2022-12-17T16:50:33.994Z,99.90
2022-12-17T16:54:35.728Z,99.90
2022-12-17T16:58:36.307Z,99.90
2022-12-17T17:02:36.759Z,99.90
2022-12-17T17:06:42.527Z,99.90
2022-12-17T17:10:42.846Z,99.90
2022-12-17T17:14:44.325Z,99.90
2022-12-17T17:18:44.559Z,99.90
2022-12-17T17:22:47.326Z,99.90
2022-12-17T17:26:47.617Z,99.90
2022-12-17T17:30:47.706Z,99.90
2022-12-17T17:34:47.853Z,99.90
2022-12-17T17:38:53.394Z,99.90
2022-12-17T17:42:53.583Z,99.90
2022-12-17T17:46:53.892Z,99.90
2022-12-17T17:51:04.348Z,99.90
2022-12-17T17:55:08.401Z,99.90
2022-12-17T17:59:11.611Z,99.90
2022-12-17T18:03:11.771Z,99.90
2022-12-17T18:07:28.147Z,99.90
2022-12-17T18:11:34.070Z,99.90
2022-12-17T18:15:34.116Z,99.90
2022-12-17T18:19:34.214Z,99.90
2022-12-17T18:23:34.408Z,99.90
2022-12-17T18:27:37.137Z,99.90
2022-12-17T18:31:37.449Z,99.90
2022-12-17T18:35:38.291Z,99.90
2022-12-17T18:39:39.132Z,99.90
2022-12-17T18:43:43.253Z,99.90
2022-12-17T18:47:44.738Z,99.90
2022-12-17T18:51:48.877Z,99.90
2022-12-17T18:55:48.943Z,99.90
2022-12-17T18:59:52.288Z,99.90
2022-12-17T19:03:52.675Z,99.90
2022-12-17T19:07:52.908Z,99.90
2022-12-17T19:11:54.741Z,99.90
2022-12-17T19:15:57.606Z,99.90
2022-12-17T19:19:57.860Z,99.90
2022-12-17T19:24:00.992Z,99.90
2022-12-17T19:28:01.265Z,99.90
2022-12-17T19:32:04.102Z,99.90
2022-12-17T19:36:08.802Z,99.90
2022-12-17T19:40:11.072Z,99.90
2022-12-17T19:44:15.771Z,99.90
2022-12-17T19:48:19.130Z,99.90
2022-12-17T19:52:19.420Z,99.90
2022-12-17T19:56:23.443Z,99.90
2022-12-17T20:00:23.857Z,99.90
2022-12-17T20:04:26.636Z,99.90
2022-12-17T20:08:26.867Z,99.90
2022-12-17T20:12:26.943Z,99.90
2022-12-17T20:16:27.220Z,99.90
2022-12-17T20:20:29.983Z,99.90
2022-12-17T20:24:31.970Z,99.90
2022-12-17T20:28:32.477Z,99.90
2022-12-17T20:32:32.648Z,99.90
2022-12-17T20:36:35.947Z,99.90
2022-12-17T20:40:36.163Z,99.90
2022-12-17T20:44:36.618Z,99.90
2022-12-17T20:48:37.464Z,99.90
2022-12-17T20:52:40.664Z,99.90
2022-12-17T20:56:42.318Z,99.90
2022-12-17T21:00:42.808Z,99.90
2022-12-17T21:04:43.128Z,99.90
2022-12-17T21:08:50.212Z,99.90
2022-12-17T21:13:03.477Z,99.90
2022-12-17T21:17:04.942Z,99.90
2022-12-17T21:21:09.468Z,99.90
2022-12-17T21:25:12.951Z,99.90
2022-12-17T21:29:14.606Z,99.90
2022-12-17T21:33:14.699Z,99.90
2022-12-17T21:37:15.069Z,99.90
2022-12-17T21:41:21.872Z,99.90
2022-12-17T21:45:21.941Z,99.90
2022-12-17T21:49:22.321Z,99.90
2022-12-17T21:53:23.355Z,99.90
2022-12-17T21:57:26.183Z,99.90
2022-12-17T22:01:29.290Z,99.90
2022-12-17T22:05:29.576Z,99.90
2022-12-17T22:09:45.104Z,99.90
2022-12-17T22:14:15.534Z,99.90
2022-12-17T22:18:19.290Z,99.90
2022-12-17T22:22:19.377Z,99.90
2022-12-17T22:26:21.635Z,99.90
2022-12-17T22:30:37.032Z,99.90
2022-12-17T22:35:01.388Z,99.90
2022-12-17T22:41:55.876Z,99.90
2022-12-17T22:44:42.208Z,99.90
2022-12-17T22:47:55.255Z,99.90
2022-12-17T22:51:55.342Z,99.90
2022-12-17T22:55:56.282Z,99.90
2022-12-17T22:59:57.246Z,99.90
2022-12-17T23:04:02.459Z,99.90
2022-12-17T23:08:03.516Z,99.90
2022-12-17T23:12:23.725Z,99.90
2022-12-17T23:16:24.796Z,99.90
2022-12-17T23:20:29.709Z,99.90
2022-12-17T23:24:29.819Z,99.90
2022-12-17T23:28:30.079Z,99.90
2022-12-17T23:32:30.412Z,99.90
2022-12-17T23:36:33.187Z,99.90
2022-12-17T23:40:33.258Z,99.90
2022-12-17T23:44:33.368Z,99.90
2022-12-17T23:48:34.805Z,99.90
2022-12-17T23:52:37.542Z,99.90
2022-12-17T23:56:38.169Z,99.90
